Terminal Aerodrome Forecast
Issued by NWS Sterling, VA

Current Version | Previous Version | Graphics & Text | Print | Product List | Glossary On
Versions: 1 2 3 4 5 6 7 8 9 10 11 12 13 14 15 16 17 18 19 20
449
FTUS41 KLWX 172012 AAA
TAFMRB
TAF AMD
KMRB 172012Z 1720/1818 13005KT 2SM -SN OVC015
     FM172200 16004KT 1SM -SN OVC008
     FM180300 20004KT P6SM OVC015
     FM180500 26004KT P6SM BKN035
     FM180900 29005KT P6SM SCT250=

USA.gov is the U.S. government's official web portal to all federal, state and local government web resources and services.